createdAt,value
2019-04-16T00:00:27.531Z,14.35
2019-04-16T00:02:57.609Z,14.90
2019-04-16T00:05:51.816Z,14.15
2019-04-16T00:08:27.954Z,13.90
2019-04-16T00:11:06.507Z,13.22
2019-04-16T00:13:48.629Z,14.43
2019-04-16T00:16:18.320Z,15.32
2019-04-16T00:18:57.197Z,14.33
2019-04-16T00:21:52.335Z,14.75
2019-04-16T00:24:41.008Z,14.33
2019-04-16T00:27:10.412Z,12.53
2019-04-16T00:29:39.801Z,14.35
2019-04-16T00:32:17.859Z,13.75
2019-04-16T00:34:47.095Z,13.60
2019-04-16T00:37:20.475Z,13.65
2019-04-16T00:39:46.748Z,14.13
2019-04-16T00:42:15.782Z,14.93
2019-04-16T00:44:45.060Z,14.43
2019-04-16T00:47:14.442Z,14.40
2019-04-16T00:49:43.825Z,14.23
2019-04-16T00:52:12.897Z,14.80
2019-04-16T00:54:42.386Z,14.15
2019-04-16T00:57:17.575Z,13.62
2019-04-16T00:59:43.779Z,14.90
2019-04-16T01:02:12.824Z,13.60
2019-04-16T01:04:41.877Z,13.90
2019-04-16T01:07:11.007Z,13.20
2019-04-16T01:09:40.055Z,13.93
2019-04-16T01:12:09.476Z,14.58
2019-04-16T01:14:38.859Z,14.30
2019-04-16T01:17:07.904Z,14.18
2019-04-16T01:19:38.312Z,14.43
2019-04-16T01:22:07.635Z,15.10
2019-04-16T01:24:36.901Z,13.80
2019-04-16T01:27:05.928Z,14.17
2019-04-16T01:29:34.810Z,14.90
2019-04-16T01:32:20.669Z,13.30
2019-04-16T01:35:07.873Z,14.03
2019-04-16T01:37:59.189Z,14.68
2019-04-16T01:40:36.744Z,14.70
2019-04-16T01:43:06.096Z,14.13
2019-04-16T01:45:35.384Z,14.10
2019-04-16T01:48:07.834Z,14.00
2019-04-16T01:50:54.974Z,12.80
2019-04-16T01:53:24.085Z,13.10
2019-04-16T01:55:56.698Z,12.80
2019-04-16T01:58:24.525Z,13.88
2019-04-16T02:00:53.808Z,13.90
2019-04-16T02:03:22.852Z,13.10
2019-04-16T02:05:54.626Z,14.20
2019-04-16T02:08:23.008Z,13.40
2019-04-16T02:10:52.340Z,13.05
2019-04-16T02:13:21.685Z,14.38
2019-04-16T02:15:53.405Z,14.20
2019-04-16T02:18:21.760Z,14.07
2019-04-16T02:20:50.728Z,14.07
2019-04-16T02:23:20.064Z,13.62
2019-04-16T02:25:51.376Z,14.10
2019-04-16T02:28:21.790Z,13.83
2019-04-16T02:30:50.789Z,13.20
2019-04-16T02:33:20.233Z,13.62
2019-04-16T02:35:49.661Z,13.20
2019-04-16T02:38:18.625Z,13.48
2019-04-16T02:40:52.922Z,12.57
2019-04-16T02:43:18.705Z,13.80
2019-04-16T02:45:48.064Z,13.68
2019-04-16T02:48:17.527Z,13.48
2019-04-16T02:50:48.830Z,13.85
2019-04-16T02:53:58.806Z,12.50
2019-04-16T02:56:54.087Z,13.90
2019-04-16T02:59:26.970Z,13.53
2019-04-16T03:02:22.780Z,12.88
2019-04-16T03:04:58.198Z,13.30
2019-04-16T03:07:24.970Z,13.38
2019-04-16T03:10:01.141Z,13.27
2019-04-16T03:12:24.970Z,13.88
2019-04-16T03:14:53.870Z,13.32
2019-04-16T03:17:51.344Z,13.72
2019-04-16T03:20:23.822Z,13.98
2019-04-16T03:22:51.785Z,12.90
2019-04-16T03:25:20.754Z,13.60
2019-04-16T03:27:51.428Z,14.03
2019-04-16T03:30:20.815Z,13.67
2019-04-16T03:32:53.031Z,13.43
2019-04-16T03:35:26.649Z,12.60
2019-04-16T03:37:53.109Z,13.43
2019-04-16T03:40:25.496Z,12.68
2019-04-16T03:42:52.872Z,13.95
2019-04-16T03:45:21.987Z,12.93
2019-04-16T03:47:52.205Z,13.40
2019-04-16T03:50:21.384Z,12.93
2019-04-16T03:52:50.762Z,13.90
2019-04-16T03:55:25.202Z,13.25
2019-04-16T03:57:51.099Z,12.05
2019-04-16T04:00:20.166Z,13.50
2019-04-16T04:02:53.874Z,14.05
2019-04-16T04:05:20.429Z,13.50
2019-04-16T04:07:49.415Z,13.20
2019-04-16T04:10:29.560Z,13.03
2019-04-16T04:12:49.870Z,14.05
2019-04-16T04:15:19.274Z,13.28
2019-04-16T04:17:48.688Z,13.43
2019-04-16T04:20:19.053Z,14.73
2019-04-16T04:22:48.830Z,14.13
2019-04-16T04:25:17.819Z,14.70
2019-04-16T04:27:47.779Z,13.10
2019-04-16T04:30:19.737Z,13.93
2019-04-16T04:32:48.799Z,14.47
2019-04-16T04:37:48.929Z,15.00
2019-04-16T04:40:18.161Z,13.10
2019-04-16T04:42:47.601Z,13.37
2019-04-16T04:43:09.932Z,14.33
2019-04-16T04:45:17.070Z,13.85
2019-04-16T04:47:51.011Z,14.35
2019-04-16T04:50:17.147Z,13.80
2019-04-16T04:52:46.830Z,13.80
2019-04-16T04:55:16.048Z,13.62
2019-04-16T04:57:45.354Z,14.50
2019-04-16T05:00:14.500Z,15.08
2019-04-16T05:02:44.468Z,14.13
2019-04-16T05:05:24.743Z,14.45
2019-04-16T05:07:50.543Z,12.70
2019-04-16T05:10:19.954Z,15.00
2019-04-16T05:12:50.465Z,14.60
2019-04-16T05:15:20.068Z,14.20
2019-04-16T05:17:49.021Z,14.53
2019-04-16T05:20:18.319Z,14.80
2019-04-16T05:22:50.599Z,15.27
2019-04-16T05:25:18.726Z,15.70
2019-04-16T05:27:47.651Z,16.43
2019-04-16T05:30:20.241Z,16.42
2019-04-16T05:32:47.825Z,16.30
2019-04-16T05:35:17.125Z,16.80
2019-04-16T05:37:48.518Z,17.98
2019-04-16T05:40:17.132Z,18.45
2019-04-16T05:42:46.093Z,17.65
2019-04-16T05:45:15.140Z,17.70
2019-04-16T05:47:48.813Z,16.97
2019-04-16T05:50:15.893Z,18.47
2019-04-16T05:52:45.297Z,17.65
2019-04-16T05:55:28.805Z,18.98
2019-04-16T05:57:58.947Z,18.57
2019-04-16T06:00:53.870Z,17.40
2019-04-16T06:03:23.251Z,18.55
2019-04-16T06:05:52.649Z,17.55
2019-04-16T06:08:21.982Z,18.80
2019-04-16T06:10:51.296Z,18.67
2019-04-16T06:13:45.559Z,17.90
2019-04-16T06:16:32.361Z,18.20
2019-04-16T06:19:19.013Z,18.30
2019-04-16T06:22:19.477Z,18.55
2019-04-16T06:25:09.245Z,17.05
2019-04-16T06:27:52.281Z,17.55
2019-04-16T06:30:39.291Z,16.55
2019-04-16T06:33:12.176Z,17.35
2019-04-16T06:35:55.520Z,16.60
2019-04-16T06:38:55.023Z,16.82
2019-04-16T06:41:48.428Z,18.30
2019-04-16T06:44:20.790Z,18.07
2019-04-16T06:46:58.016Z,17.20
2019-04-16T06:49:48.199Z,18.17
2019-04-16T06:52:39.134Z,18.40
2019-04-16T06:55:23.750Z,17.60
2019-04-16T06:58:18.355Z,17.17
2019-04-16T07:01:07.032Z,17.37
2019-04-16T07:03:58.438Z,16.90
2019-04-16T07:06:44.657Z,16.15
2019-04-16T07:09:25.761Z,18.95
2019-04-16T07:11:57.194Z,17.70
2019-04-16T07:14:26.480Z,17.20
2019-04-16T07:16:59.857Z,17.90
2019-04-16T07:19:26.744Z,17.60
2019-04-16T07:21:55.718Z,17.52
2019-04-16T07:24:30.204Z,15.53
2019-04-16T07:26:56.618Z,15.07
2019-04-16T07:29:39.287Z,15.43
2019-04-16T07:32:30.898Z,14.73
2019-04-16T07:35:17.763Z,14.80
2019-04-16T07:38:11.982Z,14.90
2019-04-16T07:41:12.323Z,15.07
2019-04-16T07:46:56.255Z,16.77
2019-04-16T07:49:36.996Z,14.03
2019-04-16T07:52:31.108Z,15.20
2019-04-16T07:55:13.478Z,15.50
2019-04-16T07:57:42.634Z,15.00
2019-04-16T08:00:12.953Z,14.80
2019-04-16T08:02:41.965Z,14.80
2019-04-16T08:05:11.140Z,15.97
2019-04-16T08:07:40.335Z,14.97
2019-04-16T08:10:09.748Z,15.20
2019-04-16T08:12:42.159Z,15.17
2019-04-16T08:15:14.828Z,15.47
2019-04-16T08:17:42.457Z,14.13
2019-04-16T08:20:11.753Z,14.17
2019-04-16T08:22:41.150Z,14.63
2019-04-16T08:25:10.557Z,14.93
2019-04-16T08:27:39.461Z,15.63
2019-04-16T08:30:11.512Z,15.40
2019-04-16T08:32:40.464Z,17.30
2019-04-16T08:35:09.481Z,14.50
2019-04-16T08:37:48.970Z,14.07
2019-04-16T08:40:12.456Z,14.20
2019-04-16T08:42:44.624Z,16.37
2019-04-16T08:45:11.627Z,14.67
2019-04-16T08:47:44.571Z,16.73
2019-04-16T08:50:12.372Z,15.90
2019-04-16T08:52:42.611Z,16.27
2019-04-16T08:55:11.979Z,14.77
2019-04-16T08:57:41.190Z,15.97
2019-04-16T09:00:15.197Z,16.40
2019-04-16T09:02:44.388Z,15.50
2019-04-16T09:05:13.663Z,15.80
2019-04-16T09:10:18.090Z,17.12
2019-04-16T09:13:02.002Z,18.23
2019-04-16T09:15:27.334Z,19.27
2019-04-16T09:18:12.338Z,16.97
2019-04-16T09:20:42.894Z,18.55
2019-04-16T09:23:11.915Z,18.00
2019-04-16T09:25:49.624Z,18.45
2019-04-16T09:28:38.007Z,18.85
2019-04-16T09:31:35.485Z,17.55
2019-04-16T09:34:18.182Z,17.90
2019-04-16T09:37:05.509Z,18.87
2019-04-16T09:39:45.698Z,16.82
2019-04-16T09:42:14.956Z,16.67
2019-04-16T09:44:43.986Z,17.43
2019-04-16T09:47:13.590Z,17.50
2019-04-16T09:49:43.224Z,17.70
2019-04-16T09:52:12.461Z,16.23
2019-04-16T09:54:44.235Z,17.80
2019-04-16T09:57:12.401Z,16.55
2019-04-16T09:59:47.669Z,17.40
2019-04-16T10:02:19.152Z,17.17
2019-04-16T10:04:48.481Z,18.17
2019-04-16T10:07:17.546Z,16.90
2019-04-16T10:09:46.997Z,16.82
2019-04-16T10:12:16.488Z,17.45
2019-04-16T10:14:45.924Z,16.90
2019-04-16T10:17:15.287Z,17.30
2019-04-16T10:19:44.269Z,17.23
2019-04-16T10:22:13.801Z,17.07
2019-04-16T10:25:17.134Z,17.87
2019-04-16T10:27:52.270Z,17.30
2019-04-16T10:30:30.104Z,17.30
2019-04-16T10:32:58.233Z,18.73
2019-04-16T10:35:27.366Z,17.62
2019-04-16T10:37:56.690Z,18.20
2019-04-16T10:40:40.341Z,18.23
2019-04-16T10:43:27.582Z,18.55
2019-04-16T10:46:16.119Z,16.93
2019-04-16T10:49:10.050Z,18.60
2019-04-16T10:51:57.115Z,19.50
2019-04-16T10:54:48.192Z,19.00
2019-04-16T10:57:38.426Z,18.30
2019-04-16T11:00:26.967Z,15.33
2019-04-16T11:03:17.581Z,14.93
2019-04-16T11:05:56.752Z,15.77
2019-04-16T11:08:23.789Z,15.93
2019-04-16T11:10:52.937Z,17.07
2019-04-16T11:13:42.777Z,17.67
2019-04-16T11:16:13.701Z,16.03
2019-04-16T11:18:42.926Z,17.00
2019-04-16T11:21:12.057Z,15.80
2019-04-16T11:23:41.315Z,18.30
2019-04-16T12:28:59.570Z,14.50
2019-04-16T12:31:48.158Z,15.80
2019-04-16T12:34:51.872Z,14.53
2019-04-16T12:37:38.919Z,13.63
2019-04-16T12:40:29.829Z,15.10
2019-04-16T12:43:06.936Z,14.20
2019-04-16T12:45:53.875Z,12.23
2019-04-16T12:48:42.273Z,12.60
2019-04-16T12:51:29.357Z,14.33
2019-04-16T12:54:17.563Z,14.03
2019-04-16T12:57:10.687Z,13.80
2019-04-16T12:59:54.667Z,13.83
2019-04-16T13:02:33.070Z,12.83
2019-04-16T13:05:07.760Z,14.37
2019-04-16T13:07:59.001Z,13.27
2019-04-16T13:10:44.275Z,14.17
2019-04-16T13:13:32.276Z,13.00
2019-04-16T13:16:35.586Z,12.90
2019-04-16T13:19:21.212Z,13.77
2019-04-16T13:21:59.811Z,13.93
2019-04-16T13:24:34.536Z,14.10
2019-04-16T13:27:09.289Z,11.70
2019-04-16T13:29:38.427Z,13.13
2019-04-16T13:32:07.677Z,13.43
2019-04-16T13:34:36.728Z,12.43
2019-04-16T13:37:06.371Z,11.70
2019-04-16T13:39:48.771Z,13.43
2019-04-16T13:42:17.842Z,11.47
2019-04-16T13:44:50.316Z,12.07
2019-04-16T13:47:19.344Z,11.23
2019-04-16T13:50:11.868Z,11.13
2019-04-16T13:52:40.896Z,11.77
2019-04-16T13:55:49.501Z,11.20
2019-04-16T13:58:28.779Z,11.93
2019-04-16T14:01:08.854Z,11.73
2019-04-16T14:03:34.897Z,12.00
2019-04-16T14:06:09.221Z,10.50
2019-04-16T14:08:34.625Z,10.13
2019-04-16T14:11:04.046Z,9.03
2019-04-16T14:13:32.987Z,9.23
2019-04-16T14:16:02.419Z,8.83
2019-04-16T14:18:32.734Z,9.43
2019-04-16T14:21:02.411Z,9.20
2019-04-16T14:23:31.645Z,8.10
2019-04-16T14:26:00.945Z,8.83
2019-04-16T14:28:34.296Z,9.93
2019-04-16T14:31:01.297Z,9.70
2019-04-16T14:33:51.640Z,9.93
2019-04-16T14:36:20.613Z,9.90
2019-04-16T14:38:53.556Z,10.23
2019-04-16T14:41:22.857Z,10.50
2019-04-16T14:43:58.801Z,10.70
2019-04-16T14:46:28.442Z,11.30
2019-04-16T14:48:58.075Z,10.93
2019-04-16T14:51:27.737Z,12.07
2019-04-16T14:54:22.363Z,13.17
2019-04-16T14:56:54.206Z,9.87
2019-04-16T14:59:33.952Z,10.10
2019-04-16T15:02:15.904Z,9.57
2019-04-16T15:05:02.554Z,9.30
2019-04-16T15:07:36.293Z,10.47
2019-04-16T15:10:25.504Z,10.83
2019-04-16T15:13:11.967Z,9.87
2019-04-16T15:16:13.201Z,10.77
2019-04-16T15:19:01.477Z,12.00
2019-04-16T15:21:52.948Z,9.60
2019-04-16T15:24:32.780Z,8.70
2019-04-16T15:27:33.296Z,8.03
2019-04-16T15:30:28.595Z,9.10
2019-04-16T15:33:19.900Z,8.90
2019-04-16T15:35:56.459Z,9.90
2019-04-16T15:38:42.480Z,8.20
2019-04-16T15:41:26.138Z,8.53
2019-04-16T15:44:31.894Z,8.83
2019-04-16T15:47:18.683Z,8.93
2019-04-16T15:49:56.050Z,9.40
2019-04-16T15:52:30.515Z,8.73
2019-04-16T15:55:24.866Z,8.53
2019-04-16T15:58:12.216Z,7.80
2019-04-16T16:01:06.897Z,8.70
2019-04-16T16:04:11.125Z,6.30
2019-04-16T16:06:51.767Z,6.20
2019-04-16T16:09:21.795Z,6.30
2019-04-16T16:11:55.759Z,6.27
2019-04-16T16:14:25.439Z,6.87
2019-04-16T16:16:54.820Z,5.70
2019-04-16T16:19:23.847Z,5.10
2019-04-16T16:21:52.884Z,5.00
2019-04-16T16:24:22.305Z,5.37
2019-04-16T16:26:51.339Z,6.47
2019-04-16T16:29:20.405Z,5.83
2019-04-16T16:31:49.693Z,5.47
2019-04-16T16:34:18.777Z,6.83
2019-04-16T16:36:47.796Z,7.00
2019-04-16T16:39:16.740Z,5.90
2019-04-16T16:41:46.784Z,5.13
2019-04-16T16:44:16.313Z,5.20
2019-04-16T16:47:13.646Z,5.50
2019-04-16T16:50:01.882Z,6.60
2019-04-16T16:53:02.789Z,6.00
2019-04-16T16:55:41.016Z,6.40
2019-04-16T16:58:32.137Z,6.93
2019-04-16T17:01:19.172Z,6.87
2019-04-16T17:03:55.522Z,7.03
2019-04-16T17:06:24.960Z,6.90
2019-04-16T17:08:54.147Z,6.43
2019-04-16T17:11:23.433Z,7.07
2019-04-16T17:13:52.733Z,6.47
2019-04-16T17:16:21.688Z,7.13
2019-04-16T17:18:50.725Z,6.80
2019-04-16T17:21:20.017Z,6.40
2019-04-16T17:23:48.968Z,7.50
2019-04-16T17:26:17.991Z,7.10
2019-04-16T17:28:47.301Z,6.80
2019-04-16T17:31:16.699Z,8.27
2019-04-16T17:33:45.781Z,7.43
2019-04-16T17:36:14.904Z,8.27
2019-04-16T17:38:44.465Z,11.93
2019-04-16T17:41:16.866Z,7.90
2019-04-16T17:44:11.261Z,8.20
2019-04-16T17:46:50.708Z,7.30
2019-04-16T17:49:24.599Z,6.57
2019-04-16T17:52:18.993Z,6.33
2019-04-16T17:55:06.225Z,6.10
2019-04-16T17:57:53.767Z,6.60
2019-04-16T18:00:43.109Z,6.10
2019-04-16T18:03:30.231Z,6.47
2019-04-16T18:06:10.993Z,6.17
2019-04-16T18:09:10.313Z,4.93
2019-04-16T18:12:01.300Z,5.47
2019-04-16T18:14:38.692Z,5.80
2019-04-16T18:17:13.968Z,4.40
2019-04-16T18:20:11.414Z,5.20
2019-04-16T18:22:45.685Z,4.90
2019-04-16T18:25:31.333Z,5.40
2019-04-16T18:28:06.280Z,5.40
2019-04-16T18:30:50.708Z,5.70
2019-04-16T18:33:35.337Z,6.20
2019-04-16T18:36:09.219Z,6.90
2019-04-16T18:39:04.353Z,7.10
2019-04-16T18:41:38.768Z,9.10
2019-04-16T18:44:28.981Z,17.43
2019-04-16T18:47:13.965Z,14.03
2019-04-16T18:49:43.749Z,16.60
2019-04-16T18:52:13.038Z,16.40
2019-04-16T18:54:42.356Z,15.97
2019-04-16T18:57:11.477Z,11.33
2019-04-16T18:59:40.733Z,10.33
2019-04-16T19:02:10.503Z,9.40
2019-04-16T19:04:39.579Z,8.40
2019-04-16T19:07:08.626Z,8.20
2019-04-16T19:09:37.687Z,7.60
2019-04-16T19:12:07.024Z,7.57
2019-04-16T19:14:36.788Z,6.30
2019-04-16T19:17:25.165Z,6.60
2019-04-16T19:19:54.267Z,6.73
2019-04-16T19:22:23.382Z,7.10
2019-04-16T19:24:52.449Z,6.20
2019-04-16T19:27:21.790Z,7.20
2019-04-16T19:29:50.808Z,6.00
2019-04-16T19:32:19.883Z,4.93
2019-04-16T19:34:48.896Z,4.77
2019-04-16T19:37:17.854Z,5.90
2019-04-16T19:39:47.792Z,6.00
2019-04-16T19:42:17.279Z,5.40
2019-04-16T19:44:46.304Z,5.73
2019-04-16T19:47:15.651Z,6.70
2019-04-16T19:49:44.701Z,7.20
2019-04-16T19:52:14.223Z,6.00
2019-04-16T19:54:44.802Z,6.67
2019-04-16T19:57:13.808Z,6.23
2019-04-16T19:59:46.399Z,6.40
2019-04-16T20:02:13.578Z,5.50
2019-04-16T20:04:44.429Z,6.30
2019-04-16T20:07:13.420Z,5.33
2019-04-16T20:09:42.729Z,5.30
2019-04-16T20:12:12.327Z,5.77
2019-04-16T20:14:41.936Z,6.00
2019-04-16T20:17:10.909Z,5.10
2019-04-16T20:19:57.840Z,4.87
2019-04-16T20:22:28.606Z,5.33
2019-04-16T20:24:57.929Z,5.37
2019-04-16T20:27:27.080Z,4.43
2019-04-16T20:29:56.372Z,4.70
2019-04-16T20:32:44.533Z,5.10
2019-04-16T20:35:17.938Z,4.93
2019-04-16T20:37:44.168Z,5.07
2019-04-16T20:40:14.678Z,4.97
2019-04-16T20:42:44.481Z,12.40
2019-04-16T20:45:13.876Z,7.97
2019-04-16T20:47:43.101Z,6.80
2019-04-16T20:50:12.220Z,5.60
2019-04-16T20:52:41.293Z,6.57
2019-04-16T20:55:15.796Z,5.70
2019-04-16T20:57:42.450Z,6.50
2019-04-16T21:00:13.334Z,6.30
2019-04-16T21:02:42.660Z,9.47
2019-04-16T21:05:22.099Z,8.33
2019-04-16T21:07:43.910Z,8.30
2019-04-16T21:10:13.559Z,11.30
2019-04-16T21:12:45.499Z,9.98
2019-04-16T21:15:14.122Z,7.85
2019-04-16T21:17:43.477Z,8.18
2019-04-16T21:20:12.519Z,7.87
2019-04-16T21:22:42.609Z,7.08
2019-04-16T21:25:13.844Z,7.20
2019-04-16T21:27:51.936Z,6.60
2019-04-16T21:30:21.340Z,6.05
2019-04-16T21:33:00.552Z,6.50
2019-04-16T21:35:36.432Z,6.30
2019-04-16T21:38:18.034Z,7.10
2019-04-16T21:40:47.317Z,6.60
2019-04-16T21:43:16.301Z,6.05
2019-04-16T21:45:45.568Z,7.22
2019-04-16T21:48:15.129Z,7.83
2019-04-16T21:50:44.583Z,7.75
2019-04-16T21:53:15.181Z,6.33
2019-04-16T21:55:44.143Z,6.85
2019-04-16T21:58:14.532Z,7.25
2019-04-16T22:01:04.329Z,6.87
2019-04-16T22:03:33.920Z,7.08
2019-04-16T22:06:02.985Z,6.28
2019-04-16T22:08:32.061Z,8.40
2019-04-16T22:11:01.029Z,7.45
2019-04-16T22:13:30.089Z,7.15
2019-04-16T22:15:59.132Z,6.20
2019-04-16T22:18:28.421Z,6.87
2019-04-16T22:20:57.823Z,6.70
2019-04-16T22:23:27.221Z,7.30
2019-04-16T22:25:57.159Z,6.67
2019-04-16T22:28:27.222Z,6.47
2019-04-16T22:30:56.207Z,6.83
2019-04-16T22:33:25.562Z,6.70
2019-04-16T22:35:54.644Z,6.60
2019-04-16T22:38:23.710Z,7.33
2019-04-16T22:40:58.273Z,6.97
2019-04-16T22:43:58.745Z,6.62
2019-04-16T22:46:32.000Z,7.00
2019-04-16T22:49:01.638Z,7.47
2019-04-16T22:51:30.613Z,7.53
2019-04-16T22:53:59.643Z,7.45
2019-04-16T22:56:35.799Z,7.10
2019-04-16T22:59:06.635Z,7.08
2019-04-16T23:01:37.720Z,6.97
2019-04-16T23:04:07.135Z,7.17
2019-04-16T23:06:38.716Z,7.10
2019-04-16T23:09:07.634Z,6.37
2019-04-16T23:11:38.957Z,7.87
2019-04-16T23:14:07.820Z,8.10
2019-04-16T23:16:41.886Z,7.05
2019-04-16T23:19:07.925Z,6.65
2019-04-16T23:21:42.324Z,7.10
2019-04-16T23:24:07.969Z,7.35
2019-04-16T23:26:37.102Z,7.40
2019-04-16T23:29:06.794Z,7.20
2019-04-16T23:31:36.274Z,7.80
2019-04-16T23:34:07.079Z,7.67
2019-04-16T23:36:36.312Z,7.17
2019-04-16T23:39:06.809Z,6.78
2019-04-16T23:41:35.806Z,7.20
2019-04-16T23:44:26.615Z,7.65
2019-04-16T23:47:29.884Z,7.40
2019-04-16T23:50:05.697Z,7.90
2019-04-16T23:52:42.151Z,8.08
2019-04-16T23:55:36.657Z,6.55
2019-04-16T23:58:15.964Z,8.48
